| time (UTC) | temp C | wind direction | speed KPH | gust KPH | rain 1hr cm | rain 24hr cm | rain mn cm | humidity % | barometer mb |
| 20260507161559 | 14 | 244 | 4.8 | 11.3 | 0.03 | 0.10 | 0.10 | 80 | 1014.7 |
| 20260507160558 | 14 | 240 | 6.4 | 9.7 | 0.03 | 0.10 | 0.10 | 78 | 1014.8 |
| 20260507155556 | 14 | 241 | 4.8 | 9.7 | 0.03 | 0.10 | 0.10 | 78 | 1014.8 |
| 20260507154553 | 14 | 239 | 6.4 | 9.7 | 0.00 | 0.08 | 0.08 | 78 | 1014.8 |
| 20260507153611 | 14 | 243 | 6.4 | 14.5 | 0.00 | 0.08 | 0.08 | 77 | 1014.7 |
| 20260507152548 | 15 | 236 | 6.4 | 11.3 | 0.03 | 0.08 | 0.08 | 78 | 1014.6 |
| 20260507151547 | 15 | 236 | 6.4 | 12.9 | 0.03 | 0.15 | 0.08 | 79 | 1014.6 |
| 20260507150545 | 15 | 234 | 4.8 | 9.7 | 0.03 | 0.23 | 0.08 | 79 | 1014.6 |
| 20260507145543 | 14 | 237 | 4.8 | 8.0 | 0.03 | 0.25 | 0.08 | 79 | 1014.6 |
| 20260507144541 | 14 | 241 | 4.8 | 11.3 | 0.03 | 0.25 | 0.08 | 77 | 1014.7 |
| 20260507143540 | 15 | 244 | 3.2 | 11.3 | 0.00 | 0.25 | 0.05 | 75 | 1014.7 |
| 20260507142557 | 15 | 246 | 4.8 | 12.9 | 0.00 | 0.23 | 0.05 | 73 | 1014.6 |
| 20260507141615 | 15 | 236 | 4.8 | 11.3 | 0.00 | 0.23 | 0.05 | 72 | 1014.5 |
| 20260507140534 | 15 | 232 | 4.8 | 11.3 | 0.00 | 0.23 | 0.05 | 72 | 1014.5 |
| 20260507135531 | 15 | 232 | 4.8 | 11.3 | 0.00 | 0.23 | 0.05 | 71 | 1014.6 |
| 20260507134529 | 15 | 246 | 4.8 | 11.3 | 0.00 | 0.23 | 0.05 | 71 | 1014.6 |
| 20260507133547 | 16 | 282 | 4.8 | 12.9 | 0.00 | 0.23 | 0.05 | 72 | 1014.6 |
| 20260507132525 | 16 | 259 | 4.8 | 11.3 | 0.00 | 0.23 | 0.05 | 74 | 1014.6 |
| 20260507131523 | 16 | 252 | 4.8 | 11.3 | 0.00 | 0.23 | 0.05 | 75 | 1014.6 |
| 20260507130521 | 15 | 256 | 3.2 | 9.7 | 0.00 | 0.23 | 0.05 | 74 | 1014.6 |
| 20260507125540 | 15 | 239 | 6.4 | 12.9 | 0.00 | 0.23 | 0.05 | 73 | 1014.5 |
| 20260507124517 | 15 | 231 | 6.4 | 14.5 | 0.00 | 0.23 | 0.05 | 73 | 1014.5 |
| 20260507123514 | 15 | 231 | 4.8 | 9.7 | 0.00 | 0.23 | 0.05 | 74 | 1014.5 |
| 20260507122513 | 15 | 247 | 4.8 | 9.7 | 0.00 | 0.23 | 0.05 | 76 | 1014.4 |
| 20260507121511 | 15 | 248 | 4.8 | 11.3 | 0.00 | 0.23 | 0.05 | 75 | 1014.4 |
| 20260507120509 | 15 | 246 | 4.8 | 12.9 | 0.00 | 0.23 | 0.05 | 69 | 1014.4 |
| 20260507115509 | 16 | 249 | 4.8 | 11.3 | 0.00 | 0.23 | 0.05 | 67 | 1014.5 |
| 20260507114525 | 16 | 221 | 6.4 | 14.5 | 0.00 | 0.23 | 0.05 | 65 | 1014.4 |
| 20260507113504 | 17 | 295 | 4.8 | 12.9 | 0.00 | 0.23 | 0.05 | 64 | 1014.4 |
| 20260507112522 | 18 | 313 | 6.4 | 11.3 | 0.00 | 0.23 | 0.05 | 64 | 1014.4 |
| 20260507111500 | 18 | 245 | 4.8 | 14.5 | 0.00 | 0.23 | 0.05 | 64 | 1014.4 |
| 20260507110517 | 17 | 260 | 3.2 | 8.0 | 0.00 | 0.23 | 0.05 | 62 | 1014.4 |
| 20260507105455 | 17 | 243 | 3.2 | 6.4 | 0.00 | 0.23 | 0.05 | 63 | 1014.5 |
| 20260507104453 | 17 | 270 | 3.2 | 9.7 | 0.00 | 0.23 | 0.05 | 64 | 1014.6 |
| 20260507103451 | 17 | 231 | 1.6 | 6.4 | 0.00 | 0.23 | 0.05 | 67 | 1014.7 |
| 20260507102449 | 17 | 231 | 1.6 | 6.4 | 0.00 | 0.23 | 0.05 | 67 | 1014.7 |
| 20260507101507 | 16 | 249 | 3.2 | 8.0 | 0.00 | 0.23 | 0.05 | 67 | 1014.8 |
| 20260507100445 | 16 | 254 | 3.2 | 6.4 | 0.00 | 0.23 | 0.05 | 70 | 1014.9 |
| 20260507095443 | 16 | 250 | 3.2 | 6.4 | 0.00 | 0.23 | 0.05 | 71 | 1014.9 |
| 20260507094441 | 16 | 249 | 3.2 | 9.7 | 0.00 | 0.23 | 0.05 | 71 | 1015.0 |
| 20260507093439 | 16 | 270 | 3.2 | 6.4 | 0.00 | 0.20 | 0.03 | 71 | 1015.0 |
| 20260507092438 | 15 | 244 | 3.2 | 6.4 | 0.00 | 0.20 | 0.03 | 73 | 1015.0 |
| 20260507091456 | 15 | 241 | 3.2 | 8.0 | 0.00 | 0.20 | 0.03 | 74 | 1015.0 |
| 20260507090433 | 15 | 228 | 3.2 | 9.7 | 0.00 | 0.20 | 0.03 | 77 | 1014.9 |
| 20260507085431 | 15 | 283 | 3.2 | 6.4 | 0.00 | 0.20 | 0.03 | 78 | 1014.9 |
| 20260507084429 | 14 | 270 | 3.2 | 6.4 | 0.00 | 0.20 | 0.03 | 80 | 1014.8 |
| 20260507083427 | 13 | 250 | 1.6 | 3.2 | 0.00 | 0.20 | 0.03 | 79 | 1014.9 |
| 20260507082425 | 13 | 244 | 3.2 | 6.4 | 0.00 | 0.20 | 0.03 | 82 | 1014.9 |
| 20260507081423 | 13 | 257 | 3.2 | 6.4 | 0.00 | 0.20 | 0.03 | 85 | 1014.9 |
| 20260507080421 | 12 | 240 | 3.2 | 8.0 | 0.00 | 0.20 | 0.03 | 86 | 1014.9 |
| 20260507075418 | 12 | 250 | 1.6 | 4.8 | 0.00 | 0.20 | 0.03 | 87 | 1014.9 |
| 20260507074437 | 12 | 251 | 1.6 | 4.8 | 0.00 | 0.20 | 0.03 | 88 | 1014.8 |
| 20260507073415 | 12 | 257 | 3.2 | 8.0 | 0.00 | 0.20 | 0.03 | 89 | 1014.8 |
| 20260507072414 | 12 | 270 | 3.2 | 8.0 | 0.00 | 0.20 | 0.03 | 91 | 1014.8 |
| 20260507071411 | 11 | 259 | 3.2 | 6.4 | 0.00 | 0.20 | 0.03 | 91 | 1014.9 |
| 20260507070409 | 11 | 270 | 1.6 | 4.8 | 0.00 | 0.20 | 0.03 | 91 | 1014.8 |
| 20260507065408 | 11 | 249 | 1.6 | 4.8 | 0.00 | 0.20 | 0.03 | 91 | 1014.7 |
| 20260507064405 | 11 | 270 | 1.6 | 3.2 | 0.00 | 0.20 | 0.03 | 91 | 1014.6 |
| 20260507063403 | 11 | 258 | 3.2 | 4.8 | 0.00 | 0.20 | 0.03 | 91 | 1014.6 |
| 20260507062401 | 11 | 270 | 1.6 | 3.2 | 0.00 | 0.20 | 0.03 | 91 | 1014.6 |
| 20260507061359 | 10 | 270 | 1.6 | 3.2 | 0.00 | 0.20 | 0.03 | 91 | 1014.5 |
| 20260507060357 | 10 | 270 | 1.6 | 4.8 | 0.00 | 0.20 | 0.03 | 91 | 1014.4 |
| 20260507055357 | 10 | 270 | 3.2 | 6.4 | 0.00 | 0.20 | 0.03 | 91 | 1014.3 |
| 20260507054414 | 10 | 254 | 3.2 | 4.8 | 0.00 | 0.20 | 0.03 | 91 | 1014.2 |
| 20260507053351 | 10 | 251 | 1.6 | 4.8 | 0.00 | 0.20 | 0.03 | 91 | 1014.2 |
| 20260507052409 | 9 | 250 | 1.6 | 4.8 | 0.00 | 0.20 | 0.03 | 91 | 1014.1 |
| 20260507051347 | 9 | 255 | 3.2 | 6.4 | 0.00 | 0.20 | 0.03 | 91 | 1013.9 |
| 20260507050345 | 9 | 250 | 3.2 | 4.8 | 0.00 | 0.20 | 0.03 | 91 | 1013.8 |
| 20260507045343 | 9 | 258 | 3.2 | 6.4 | 0.00 | 0.20 | 0.03 | 91 | 1013.7 |
| 20260507044340 | 9 | 270 | 1.6 | 4.8 | 0.00 | 0.20 | 0.03 | 91 | 1013.5 |
| 20260507043339 | 9 | 270 | 1.6 | 4.8 | 0.00 | 0.20 | 0.03 | 91 | 1013.4 |
| 20260507042358 | 9 | 270 | 3.2 | 4.8 | 0.00 | 0.20 | 0.03 | 91 | 1013.4 |
| 20260507041356 | 9 | 270 | 1.6 | 4.8 | 0.00 | 0.20 | 0.03 | 91 | 1013.3 |
| 20260507040333 | 9 | 282 | 3.2 | 6.4 | 0.00 | 0.20 | 0.03 | 90 | 1013.3 |
| 20260507035331 | 9 | 278 | 3.2 | 6.4 | 0.00 | 0.20 | 0.03 | 89 | 1013.2 |
| 20260507034329 | 9 | 270 | 3.2 | 4.8 | 0.00 | 0.20 | 0.03 | 89 | 1013.2 |
| 20260507033347 | 9 | 270 | 3.2 | 6.4 | 0.00 | 0.20 | 0.03 | 89 | 1013.0 |
| 20260507032325 | 9 | 270 | 1.6 | 4.8 | 0.00 | 0.20 | 0.03 | 89 | 1013.0 |
| 20260507031323 | 10 | 270 | 3.2 | 6.4 | 0.00 | 0.20 | 0.03 | 89 | 1012.9 |
| 20260507030322 | 10 | 270 | 3.2 | 6.4 | 0.00 | 0.20 | 0.03 | 89 | 1012.9 |
| 20260507025319 | 10 | 270 | 3.2 | 6.4 | 0.00 | 0.20 | 0.03 | 90 | 1012.9 |
| 20260507024317 | 10 | 270 | 1.6 | 6.4 | 0.00 | 0.20 | 0.03 | 89 | 1012.9 |
| 20260507023316 | 10 | 270 | 1.6 | 4.8 | 0.00 | 0.20 | 0.03 | 89 | 1012.9 |
| 20260507022313 | 10 | 281 | 3.2 | 6.4 | 0.00 | 0.20 | 0.03 | 89 | 1012.8 |
| 20260507021312 | 10 | 270 | 1.6 | 4.8 | 0.00 | 0.20 | 0.03 | 89 | 1012.7 |
| 20260507020309 | 10 | 270 | 3.2 | 6.4 | 0.00 | 0.20 | 0.03 | 88 | 1012.7 |
| 20260507015307 | 10 | 270 | 3.2 | 6.4 | 0.00 | 0.20 | 0.03 | 88 | 1012.6 |
| 20260507014325 | 10 | 281 | 3.2 | 4.8 | 0.00 | 0.20 | 0.03 | 87 | 1012.5 |
| 20260507013304 | 10 | 270 | 3.2 | 4.8 | 0.00 | 0.20 | 0.03 | 87 | 1012.5 |
| 20260507012305 | 10 | 302 | 1.6 | 3.2 | 0.00 | 0.20 | 0.03 | 88 | 1012.5 |
| 20260507011259 | 10 | 270 | 1.6 | 4.8 | 0.00 | 0.20 | 0.03 | 88 | 1012.4 |
| 20260507010317 | 10 | 270 | 3.2 | 6.4 | 0.00 | 0.20 | 0.03 | 88 | 1012.4 |
| 20260507005255 | 10 | 270 | 3.2 | 6.4 | 0.00 | 0.20 | 0.03 | 87 | 1012.4 |
| 20260507004313 | 10 | 270 | 1.6 | 4.8 | 0.00 | 0.20 | 0.03 | 87 | 1012.4 |
| 20260507003250 | 10 | 285 | 1.6 | 3.2 | 0.00 | 0.20 | 0.03 | 87 | 1012.3 |
| 20260507002249 | 10 | 270 | 3.2 | 4.8 | 0.00 | 0.20 | 0.03 | 88 | 1012.3 |
| 20260507001247 | 10 | 270 | 3.2 | 4.8 | 0.00 | 0.20 | 0.03 | 88 | 1012.2 |
| 20260507000245 | 10 | 270 | 1.6 | 4.8 | 0.03 | 0.20 | 0.03 | 87 | 1012.3 |
| 20260506235244 | 11 | 341 | 1.6 | 3.2 | 0.03 | 0.20 | 0.03 | 88 | 1012.3 |
| 20260506234241 | 10 | 283 | 3.2 | 4.8 | 0.03 | 0.20 | 0.03 | 87 | 1012.3 |
| 20260506233301 | 10 | 270 | 1.6 | 4.8 | 0.03 | 0.20 | 0.03 | 87 | 1012.4 |
| 20260506232237 | 10 | 270 | 3.2 | 6.4 | 0.03 | 0.20 | 0.03 | 86 | 1012.3 |
| 20260506231235 | 10 | 270 | 3.2 | 6.4 | 0.03 | 0.20 | 0.03 | 85 | 1012.3 |
| 20260506230233 | 10 | 254 | 3.2 | 6.4 | 0.00 | 0.18 | 0.00 | 85 | 1012.2 |
| 20260506225231 | 11 | 258 | 3.2 | 6.4 | 0.00 | 0.18 | 0.00 | 84 | 1012.2 |
| 20260506224230 | 11 | 270 | 3.2 | 6.4 | 0.00 | 0.18 | 0.00 | 83 | 1012.1 |
| 20260506223227 | 11 | 270 | 3.2 | 6.4 | 0.00 | 0.18 | 0.00 | 82 | 1012.1 |
| 20260506222224 | 11 | 270 | 3.2 | 4.8 | 0.00 | 0.18 | 0.00 | 82 | 1012.0 |
| 20260506221224 | 11 | 270 | 1.6 | 6.4 | 0.00 | 0.18 | 0.00 | 82 | 1012.0 |
| 20260506220221 | 11 | 270 | 3.2 | 6.4 | 0.00 | 0.18 | 0.00 | 82 | 1011.9 |
| 20260506215219 | 11 | 270 | 3.2 | 4.8 | 0.00 | 0.18 | 0.18 | 82 | 1011.8 |
| 20260506214217 | 11 | 270 | 1.6 | 3.2 | 0.00 | 0.18 | 0.18 | 82 | 1011.8 |
| 20260506213216 | 11 | 270 | 1.6 | 4.8 | 0.00 | 0.18 | 0.18 | 82 | 1011.8 |
| 20260506212213 | 11 | 270 | 3.2 | 6.4 | 0.00 | 0.18 | 0.18 | 81 | 1011.8 |
| 20260506211211 | 11 | 280 | 3.2 | 4.8 | 0.00 | 0.18 | 0.18 | 81 | 1011.7 |
| 20260506210209 | 11 | 270 | 1.6 | 3.2 | 0.00 | 0.18 | 0.18 | 80 | 1011.6 |
| 20260506205207 | 11 | 270 | 1.6 | 3.2 | 0.00 | 0.18 | 0.18 | 80 | 1011.6 |
| 20260506204205 | 11 | 270 | 3.2 | 6.4 | 0.00 | 0.18 | 0.18 | 80 | 1011.6 |
| 20260506203203 | 11 | 262 | 3.2 | 6.4 | 0.00 | 0.18 | 0.18 | 80 | 1011.6 |
| 20260506202221 | 11 | 270 | 3.2 | 6.4 | 0.00 | 0.18 | 0.18 | 79 | 1011.5 |
| 20260506201200 | 11 | 270 | 3.2 | 4.8 | 0.00 | 0.18 | 0.18 | 79 | 1011.4 |
| 20260506200157 | 11 | 270 | 3.2 | 4.8 | 0.00 | 0.18 | 0.18 | 78 | 1011.4 |
| 20260506195154 | 11 | 270 | 1.6 | 3.2 | 0.00 | 0.18 | 0.18 | 78 | 1011.3 |
| 20260506194153 | 11 | 290 | 1.6 | 3.2 | 0.00 | 0.18 | 0.18 | 78 | 1011.1 |
| 20260506193151 | 11 | 288 | 1.6 | 3.2 | 0.00 | 0.18 | 0.18 | 78 | 1010.9 |
| 20260506192149 | 11 | 270 | 1.6 | 4.8 | 0.00 | 0.18 | 0.18 | 77 | 1010.8 |
| 20260506191147 | 11 | 270 | 1.6 | 4.8 | 0.00 | 0.18 | 0.18 | 76 | 1010.8 |
| 20260506190145 | 12 | 270 | 1.6 | 4.8 | 0.00 | 0.18 | 0.18 | 76 | 1010.5 |
| 20260506185143 | 12 | 270 | 1.6 | 3.2 | 0.00 | 0.18 | 0.18 | 76 | 1010.5 |
| 20260506184141 | 12 | 270 | 1.6 | 4.8 | 0.00 | 0.18 | 0.18 | 76 | 1010.2 |
| 20260506183159 | 12 | 270 | 1.6 | 3.2 | 0.00 | 0.18 | 0.18 | 76 | 1010.1 |
| 20260506182138 | 12 | 270 | 3.2 | 4.8 | 0.00 | 0.18 | 0.18 | 76 | 1010.0 |
| 20260506181135 | 12 | 270 | 1.6 | 4.8 | 0.00 | 0.18 | 0.18 | 76 | 1010.0 |
| 20260506180133 | 12 | 270 | 3.2 | 4.8 | 0.00 | 0.18 | 0.18 | 75 | 1009.9 |
| 20260506175151 | 12 | 253 | 3.2 | 6.4 | 0.00 | 0.18 | 0.18 | 74 | 1009.8 |
| 20260506174128 | 12 | 247 | 4.8 | 9.7 | 0.00 | 0.18 | 0.18 | 73 | 1009.8 |
| 20260506173126 | 12 | 253 | 3.2 | 9.7 | 0.00 | 0.18 | 0.18 | 73 | 1009.7 |
| 20260506172124 | 13 | 240 | 3.2 | 8.0 | 0.00 | 0.18 | 0.18 | 73 | 1009.7 |
| 20260506171122 | 13 | 246 | 3.2 | 6.4 | 0.00 | 0.18 | 0.18 | 72 | 1009.5 |
| 20260506170121 | 13 | 239 | 3.2 | 4.8 | 0.00 | 0.18 | 0.18 | 71 | 1009.2 |
| 20260506165118 | 13 | 243 | 3.2 | 8.0 | 0.00 | 0.18 | 0.18 | 71 | 1009.1 |
| 20260506164117 | 13 | 270 | 3.2 | 6.4 | 0.00 | 0.18 | 0.18 | 73 | 1009.0 |
| 20260506163134 | 13 | 270 | 3.2 | 4.8 | 0.00 | 0.18 | 0.18 | 74 | 1009.0 |